sensor_id;sensor_type;location;lat;lon;timestamp;pressure;altitude;pressure_sealevel;temperature;humidity
41202;BME280;26936;50.524;8.684;2022-12-18T00:01:32;100766.66;;;-7.07;100.00
41202;BME280;26936;50.524;8.684;2022-12-18T00:03:59;100771.84;;;-7.06;100.00
41202;BME280;26936;50.524;8.684;2022-12-18T00:06:26;100768.59;;;-7.08;100.00
41202;BME280;26936;50.524;8.684;2022-12-18T00:08:52;100769.31;;;-7.02;100.00
41202;BME280;26936;50.524;8.684;2022-12-18T00:11:20;100766.28;;;-7.01;100.00
41202;BME280;26936;50.524;8.684;2022-12-18T00:13:46;100761.09;;;-7.02;100.00
41202;BME280;26936;50.524;8.684;2022-12-18T00:16:15;100760.59;;;-7.04;100.00
41202;BME280;26936;50.524;8.684;2022-12-18T00:18:41;100754.69;;;-6.97;100.00
41202;BME280;26936;50.524;8.684;2022-12-18T00:21:09;100768.69;;;-6.99;100.00
41202;BME280;26936;50.524;8.684;2022-12-18T00:23:35;100760.69;;;-6.95;100.00
41202;BME280;26936;50.524;8.684;2022-12-18T00:26:03;100760.81;;;-6.87;100.00
41202;BME280;26936;50.524;8.684;2022-12-18T00:28:28;100761.13;;;-6.88;100.00
41202;BME280;26936;50.524;8.684;2022-12-18T00:33:27;100750.44;;;-6.90;100.00
41202;BME280;26936;50.524;8.684;2022-12-18T00:35:52;100762.94;;;-6.84;100.00
41202;BME280;26936;50.524;8.684;2022-12-18T00:38:17;100757.03;;;-6.91;100.00
41202;BME280;26936;50.524;8.684;2022-12-18T00:40:43;100761.22;;;-6.93;100.00
41202;BME280;26936;50.524;8.684;2022-12-18T00:43:08;100765.66;;;-6.84;100.00
41202;BME280;26936;50.524;8.684;2022-12-18T00:45:34;100755.22;;;-6.82;100.00
41202;BME280;26936;50.524;8.684;2022-12-18T00:47:59;100752.91;;;-6.88;100.00
41202;BME280;26936;50.524;8.684;2022-12-18T00:50:25;100754.41;;;-6.82;100.00
41202;BME280;26936;50.524;8.684;2022-12-18T00:52:51;100752.97;;;-6.80;100.00
41202;BME280;26936;50.524;8.684;2022-12-18T00:55:16;100754.72;;;-6.84;100.00
41202;BME280;26936;50.524;8.684;2022-12-18T00:57:42;100763.53;;;-6.87;100.00
41202;BME280;26936;50.524;8.684;2022-12-18T01:00:10;100760.97;;;-6.83;100.00
41202;BME280;26936;50.524;8.684;2022-12-18T01:02:36;100755.81;;;-6.85;100.00
41202;BME280;26936;50.524;8.684;2022-12-18T01:05:01;100764.03;;;-6.85;100.00
41202;BME280;26936;50.524;8.684;2022-12-18T01:07:26;100764.94;;;-6.89;100.00
41202;BME280;26936;50.524;8.684;2022-12-18T01:09:52;100770.72;;;-6.91;100.00
41202;BME280;26936;50.524;8.684;2022-12-18T01:12:17;100770.53;;;-6.94;100.00
41202;BME280;26936;50.524;8.684;2022-12-18T01:14:42;100774.69;;;-6.97;100.00
41202;BME280;26936;50.524;8.684;2022-12-18T01:17:07;100771.13;;;-6.97;100.00
41202;BME280;26936;50.524;8.684;2022-12-18T01:19:33;100773.34;;;-7.00;100.00
41202;BME280;26936;50.524;8.684;2022-12-18T01:21:58;100769.22;;;-6.97;100.00
41202;BME280;26936;50.524;8.684;2022-12-18T01:24:24;100767.19;;;-7.05;100.00
41202;BME280;26936;50.524;8.684;2022-12-18T01:26:49;100774.56;;;-7.06;100.00
41202;BME280;26936;50.524;8.684;2022-12-18T01:29:14;100774.78;;;-7.02;100.00
41202;BME280;26936;50.524;8.684;2022-12-18T01:31:40;100766.78;;;-6.98;100.00
41202;BME280;26936;50.524;8.684;2022-12-18T01:34:05;100765.56;;;-6.92;100.00
41202;BME280;26936;50.524;8.684;2022-12-18T01:36:35;100763.44;;;-6.95;100.00
41202;BME280;26936;50.524;8.684;2022-12-18T01:39:07;100771.03;;;-7.06;100.00
41202;BME280;26936;50.524;8.684;2022-12-18T01:41:34;100775.31;;;-7.00;100.00
41202;BME280;26936;50.524;8.684;2022-12-18T01:47:19;100772.06;;;-7.02;100.00
41202;BME280;26936;50.524;8.684;2022-12-18T01:49:45;100772.88;;;-7.02;100.00
41202;BME280;26936;50.524;8.684;2022-12-18T01:52:10;100770.94;;;-7.01;100.00
41202;BME280;26936;50.524;8.684;2022-12-18T01:54:36;100769.72;;;-6.95;100.00
41202;BME280;26936;50.524;8.684;2022-12-18T01:57:01;100775.47;;;-6.97;100.00
41202;BME280;26936;50.524;8.684;2022-12-18T01:59:27;100773.56;;;-6.96;100.00
41202;BME280;26936;50.524;8.684;2022-12-18T02:01:54;100776.41;;;-7.01;100.00
41202;BME280;26936;50.524;8.684;2022-12-18T02:06:47;100761.09;;;-7.02;100.00
41202;BME280;26936;50.524;8.684;2022-12-18T02:09:22;100753.59;;;-7.10;100.00
41202;BME280;26936;50.524;8.684;2022-12-18T02:14:44;100758.66;;;-7.17;100.00
41202;BME280;26936;50.524;8.684;2022-12-18T02:17:19;100759.38;;;-7.12;100.00
41202;BME280;26936;50.524;8.684;2022-12-18T02:19:59;100760.06;;;-7.06;100.00
41202;BME280;26936;50.524;8.684;2022-12-18T02:25:52;100756.94;;;-7.13;100.00
41202;BME280;26936;50.524;8.684;2022-12-18T02:28:25;100759.84;;;-7.10;100.00
41202;BME280;26936;50.524;8.684;2022-12-18T02:30:53;100757.34;;;-7.20;100.00
41202;BME280;26936;50.524;8.684;2022-12-18T02:33:22;100761.38;;;-7.17;100.00
41202;BME280;26936;50.524;8.684;2022-12-18T02:35:50;100773.66;;;-7.15;100.00
41202;BME280;26936;50.524;8.684;2022-12-18T02:38:16;100766.84;;;-7.17;100.00
41202;BME280;26936;50.524;8.684;2022-12-18T02:40:43;100772.84;;;-7.15;100.00
41202;BME280;26936;50.524;8.684;2022-12-18T02:43:13;100771.03;;;-7.20;100.00
41202;BME280;26936;50.524;8.684;2022-12-18T02:46:23;100781.16;;;-7.20;100.00
41202;BME280;26936;50.524;8.684;2022-12-18T02:48:51;100773.56;;;-7.23;100.00
41202;BME280;26936;50.524;8.684;2022-12-18T02:51:35;100770.16;;;-7.34;100.00
41202;BME280;26936;50.524;8.684;2022-12-18T02:54:22;100771.50;;;-7.31;100.00
41202;BME280;26936;50.524;8.684;2022-12-18T02:56:51;100767.75;;;-7.35;100.00
41202;BME280;26936;50.524;8.684;2022-12-18T02:59:24;100780.91;;;-7.37;100.00
41202;BME280;26936;50.524;8.684;2022-12-18T03:02:22;100768.72;;;-7.45;100.00
41202;BME280;26936;50.524;8.684;2022-12-18T03:05:07;100778.16;;;-7.37;100.00
41202;BME280;26936;50.524;8.684;2022-12-18T03:07:37;100787.06;;;-7.45;100.00
41202;BME280;26936;50.524;8.684;2022-12-18T03:10:06;100787.38;;;-7.47;100.00
41202;BME280;26936;50.524;8.684;2022-12-18T03:12:40;100785.44;;;-7.46;100.00
41202;BME280;26936;50.524;8.684;2022-12-18T03:15:30;100770.03;;;-7.42;100.00
41202;BME280;26936;50.524;8.684;2022-12-18T03:18:08;100769.84;;;-7.46;100.00
41202;BME280;26936;50.524;8.684;2022-12-18T03:20:36;100769.22;;;-7.56;100.00
41202;BME280;26936;50.524;8.684;2022-12-18T03:23:12;100759.56;;;-7.67;100.00
41202;BME280;26936;50.524;8.684;2022-12-18T03:25:40;100761.56;;;-7.73;100.00
41202;BME280;26936;50.524;8.684;2022-12-18T03:28:10;100763.19;;;-7.72;100.00
41202;BME280;26936;50.524;8.684;2022-12-18T03:30:39;100770.28;;;-7.71;100.00
41202;BME280;26936;50.524;8.684;2022-12-18T03:33:10;100762.47;;;-7.77;100.00
41202;BME280;26936;50.524;8.684;2022-12-18T03:35:42;100763.06;;;-7.80;100.00
41202;BME280;26936;50.524;8.684;2022-12-18T03:38:08;100759.81;;;-7.82;100.00
41202;BME280;26936;50.524;8.684;2022-12-18T03:43:20;100769.44;;;-7.85;100.00
41202;BME280;26936;50.524;8.684;2022-12-18T03:46:02;100763.97;;;-7.85;100.00
41202;BME280;26936;50.524;8.684;2022-12-18T03:48:31;100762.25;;;-7.81;100.00
41202;BME280;26936;50.524;8.684;2022-12-18T03:51:10;100759.59;;;-7.86;100.00
41202;BME280;26936;50.524;8.684;2022-12-18T03:53:59;100752.28;;;-7.90;100.00
41202;BME280;26936;50.524;8.684;2022-12-18T03:56:29;100749.75;;;-7.87;100.00
41202;BME280;26936;50.524;8.684;2022-12-18T03:58:57;100761.09;;;-7.93;100.00
41202;BME280;26936;50.524;8.684;2022-12-18T04:01:34;100763.06;;;-7.99;100.00
41202;BME280;26936;50.524;8.684;2022-12-18T04:04:02;100760.63;;;-8.00;100.00
41202;BME280;26936;50.524;8.684;2022-12-18T04:06:29;100753.63;;;-8.06;100.00
41202;BME280;26936;50.524;8.684;2022-12-18T04:08:57;100755.47;;;-8.02;100.00
41202;BME280;26936;50.524;8.684;2022-12-18T04:11:23;100762.66;;;-8.06;100.00
41202;BME280;26936;50.524;8.684;2022-12-18T04:13:48;100769.06;;;-8.15;100.00
41202;BME280;26936;50.524;8.684;2022-12-18T04:16:13;100760.25;;;-8.26;100.00
41202;BME280;26936;50.524;8.684;2022-12-18T04:18:38;100753.13;;;-8.27;100.00
41202;BME280;26936;50.524;8.684;2022-12-18T04:21:04;100749.69;;;-8.32;100.00
41202;BME280;26936;50.524;8.684;2022-12-18T04:23:29;100745.91;;;-8.36;100.00
41202;BME280;26936;50.524;8.684;2022-12-18T04:25:54;100747.03;;;-8.37;100.00
41202;BME280;26936;50.524;8.684;2022-12-18T04:28:20;100737.84;;;-8.47;100.00
41202;BME280;26936;50.524;8.684;2022-12-18T04:30:49;100741.31;;;-8.60;100.00
41202;BME280;26936;50.524;8.684;2022-12-18T04:33:17;100734.59;;;-8.67;100.00
41202;BME280;26936;50.524;8.684;2022-12-18T04:35:43;100746.75;;;-8.78;100.00
41202;BME280;26936;50.524;8.684;2022-12-18T04:38:08;100755.31;;;-8.85;100.00
41202;BME280;26936;50.524;8.684;2022-12-18T04:40:35;100755.84;;;-8.83;100.00
41202;BME280;26936;50.524;8.684;2022-12-18T04:43:01;100746.66;;;-8.92;100.00
41202;BME280;26936;50.524;8.684;2022-12-18T04:45:26;100752.09;;;-8.92;100.00
41202;BME280;26936;50.524;8.684;2022-12-18T04:47:51;100744.81;;;-8.96;100.00
41202;BME280;26936;50.524;8.684;2022-12-18T04:50:17;100750.63;;;-9.03;100.00
41202;BME280;26936;50.524;8.684;2022-12-18T04:52:42;100751.78;;;-9.09;100.00
41202;BME280;26936;50.524;8.684;2022-12-18T04:55:07;100755.88;;;-9.11;100.00
41202;BME280;26936;50.524;8.684;2022-12-18T04:57:33;100767.16;;;-9.18;100.00
41202;BME280;26936;50.524;8.684;2022-12-18T04:59:58;100752.44;;;-9.17;100.00
41202;BME280;26936;50.524;8.684;2022-12-18T05:02:23;100762.34;;;-9.26;100.00
41202;BME280;26936;50.524;8.684;2022-12-18T05:04:48;100754.28;;;-9.12;100.00
41202;BME280;26936;50.524;8.684;2022-12-18T05:07:14;100747.47;;;-9.15;100.00
41202;BME280;26936;50.524;8.684;2022-12-18T05:09:39;100748.16;;;-9.28;100.00
41202;BME280;26936;50.524;8.684;2022-12-18T05:12:05;100753.63;;;-9.28;100.00
41202;BME280;26936;50.524;8.684;2022-12-18T05:14:30;100767.75;;;-9.21;100.00
41202;BME280;26936;50.524;8.684;2022-12-18T05:16:55;100764.03;;;-9.30;100.00
41202;BME280;26936;50.524;8.684;2022-12-18T05:19:21;100770.31;;;-9.34;99.94
41202;BME280;26936;50.524;8.684;2022-12-18T05:21:46;100769.28;;;-9.38;99.64
41202;BME280;26936;50.524;8.684;2022-12-18T05:24:11;100770.66;;;-9.41;99.34
41202;BME280;26936;50.524;8.684;2022-12-18T05:26:36;100769.25;;;-9.33;99.40
41202;BME280;26936;50.524;8.684;2022-12-18T05:29:02;100763.31;;;-9.40;98.46
41202;BME280;26936;50.524;8.684;2022-12-18T05:31:27;100759.81;;;-9.46;98.74
41202;BME280;26936;50.524;8.684;2022-12-18T05:33:52;100767.78;;;-9.49;99.00
41202;BME280;26936;50.524;8.684;2022-12-18T05:36:18;100770.50;;;-9.49;99.06
41202;BME280;26936;50.524;8.684;2022-12-18T05:38:43;100766.38;;;-9.47;98.65
41202;BME280;26936;50.524;8.684;2022-12-18T05:41:09;100767.78;;;-9.49;98.44
41202;BME280;26936;50.524;8.684;2022-12-18T05:43:36;100766.66;;;-9.48;98.04
41202;BME280;26936;50.524;8.684;2022-12-18T05:46:06;100769.97;;;-9.51;98.50
41202;BME280;26936;50.524;8.684;2022-12-18T05:48:32;100765.63;;;-9.57;98.67
41202;BME280;26936;50.524;8.684;2022-12-18T05:51:04;100764.81;;;-9.53;99.64
41202;BME280;26936;50.524;8.684;2022-12-18T05:53:30;100763.69;;;-9.52;100.00
41202;BME280;26936;50.524;8.684;2022-12-18T05:55:59;100768.38;;;-9.57;100.00
41202;BME280;26936;50.524;8.684;2022-12-18T05:58:25;100777.41;;;-9.62;100.00
41202;BME280;26936;50.524;8.684;2022-12-18T06:00:50;100773.03;;;-9.58;100.00
41202;BME280;26936;50.524;8.684;2022-12-18T06:03:15;100772.25;;;-9.63;100.00
41202;BME280;26936;50.524;8.684;2022-12-18T06:05:43;100776.88;;;-9.64;100.00
41202;BME280;26936;50.524;8.684;2022-12-18T06:08:08;100777.50;;;-9.72;100.00
41202;BME280;26936;50.524;8.684;2022-12-18T06:10:34;100770.19;;;-9.76;99.58
41202;BME280;26936;50.524;8.684;2022-12-18T06:13:00;100779.47;;;-9.77;99.30
41202;BME280;26936;50.524;8.684;2022-12-18T06:15:25;100775.44;;;-9.85;98.37
41202;BME280;26936;50.524;8.684;2022-12-18T06:17:50;100777.09;;;-9.89;97.50
41202;BME280;26936;50.524;8.684;2022-12-18T06:20:16;100774.09;;;-9.88;96.98
41202;BME280;26936;50.524;8.684;2022-12-18T06:22:41;100779.91;;;-9.99;96.80
41202;BME280;26936;50.524;8.684;2022-12-18T06:25:06;100779.38;;;-10.01;96.54
41202;BME280;26936;50.524;8.684;2022-12-18T06:27:32;100770.16;;;-10.05;96.16
41202;BME280;26936;50.524;8.684;2022-12-18T06:29:59;100775.94;;;-10.12;96.29
41202;BME280;26936;50.524;8.684;2022-12-18T06:32:24;100783.34;;;-10.17;96.60
41202;BME280;26936;50.524;8.684;2022-12-18T06:34:49;100779.03;;;-10.23;96.55
41202;BME280;26936;50.524;8.684;2022-12-18T06:37:15;100777.31;;;-10.14;96.40
41202;BME280;26936;50.524;8.684;2022-12-18T06:39:40;100780.63;;;-10.17;96.11
41202;BME280;26936;50.524;8.684;2022-12-18T06:42:05;100781.75;;;-10.23;96.20
41202;BME280;26936;50.524;8.684;2022-12-18T06:44:31;100790.50;;;-10.26;96.22
41202;BME280;26936;50.524;8.684;2022-12-18T06:46:56;100786.38;;;-10.24;96.54
41202;BME280;26936;50.524;8.684;2022-12-18T06:49:21;100790.69;;;-10.18;96.15
41202;BME280;26936;50.524;8.684;2022-12-18T06:51:46;100788.00;;;-10.23;95.62
41202;BME280;26936;50.524;8.684;2022-12-18T06:54:12;100789.38;;;-10.25;95.55
41202;BME280;26936;50.524;8.684;2022-12-18T06:56:37;100791.88;;;-10.34;95.10
41202;BME280;26936;50.524;8.684;2022-12-18T06:59:03;100806.31;;;-10.33;95.02
41202;BME280;26936;50.524;8.684;2022-12-18T07:01:28;100802.25;;;-10.41;94.56
41202;BME280;26936;50.524;8.684;2022-12-18T07:03:55;100806.13;;;-10.47;94.98
41202;BME280;26936;50.524;8.684;2022-12-18T07:06:23;100809.16;;;-10.53;94.25
41202;BME280;26936;50.524;8.684;2022-12-18T07:08:49;100823.28;;;-10.46;94.36
41202;BME280;26936;50.524;8.684;2022-12-18T07:11:16;100820.03;;;-10.53;94.27
41202;BME280;26936;50.524;8.684;2022-12-18T07:13:41;100827.34;;;-10.49;94.85
41202;BME280;26936;50.524;8.684;2022-12-18T07:16:09;100828.47;;;-10.50;94.51
41202;BME280;26936;50.524;8.684;2022-12-18T07:18:35;100828.69;;;-10.41;94.60
41202;BME280;26936;50.524;8.684;2022-12-18T07:21:09;100831.97;;;-10.44;94.55
41202;BME280;26936;50.524;8.684;2022-12-18T07:23:35;100829.25;;;-10.44;94.60
41202;BME280;26936;50.524;8.684;2022-12-18T07:26:06;100817.22;;;-10.33;94.95
41202;BME280;26936;50.524;8.684;2022-12-18T07:28:32;100824.03;;;-10.36;94.30
41202;BME280;26936;50.524;8.684;2022-12-18T07:31:02;100819.13;;;-10.39;93.92
41202;BME280;26936;50.524;8.684;2022-12-18T07:33:27;100809.91;;;-10.38;94.23
41202;BME280;26936;50.524;8.684;2022-12-18T07:35:52;100815.31;;;-10.33;94.92
41202;BME280;26936;50.524;8.684;2022-12-18T07:38:17;100818.25;;;-10.29;94.28
41202;BME280;26936;50.524;8.684;2022-12-18T07:40:43;100813.94;;;-10.30;94.59
41202;BME280;26936;50.524;8.684;2022-12-18T07:43:08;100817.53;;;-10.40;95.21
41202;BME280;26936;50.524;8.684;2022-12-18T07:45:33;100824.03;;;-10.36;95.59
41202;BME280;26936;50.524;8.684;2022-12-18T07:47:58;100817.19;;;-10.28;95.13
41202;BME280;26936;50.524;8.684;2022-12-18T07:50:24;100822.59;;;-10.18;95.42
41202;BME280;26936;50.524;8.684;2022-12-18T07:52:49;100816.81;;;-10.12;94.92
41202;BME280;26936;50.524;8.684;2022-12-18T07:55:14;100812.41;;;-10.08;95.11
41202;BME280;26936;50.524;8.684;2022-12-18T07:57:40;100808.94;;;-10.13;94.93
41202;BME280;26936;50.524;8.684;2022-12-18T08:00:05;100811.09;;;-10.10;95.03
41202;BME280;26936;50.524;8.684;2022-12-18T08:02:31;100806.75;;;-10.16;95.51
41202;BME280;26936;50.524;8.684;2022-12-18T08:04:56;100805.28;;;-10.04;95.26
41202;BME280;26936;50.524;8.684;2022-12-18T08:07:22;100811.63;;;-10.08;95.71
41202;BME280;26936;50.524;8.684;2022-12-18T08:09:47;100812.06;;;-10.01;96.48
41202;BME280;26936;50.524;8.684;2022-12-18T08:12:12;100800.00;;;-9.90;96.14
41202;BME280;26936;50.524;8.684;2022-12-18T08:14:37;100802.34;;;-9.78;96.02
41202;BME280;26936;50.524;8.684;2022-12-18T08:17:03;100795.25;;;-9.74;95.40
41202;BME280;26936;50.524;8.684;2022-12-18T08:19:28;100795.91;;;-9.59;95.51
41202;BME280;26936;50.524;8.684;2022-12-18T08:21:53;100791.69;;;-9.41;94.65
41202;BME280;26936;50.524;8.684;2022-12-18T08:24:18;100783.91;;;-9.29;94.13
41202;BME280;26936;50.524;8.684;2022-12-18T08:26:44;100772.03;;;-9.15;93.12
41202;BME280;26936;50.524;8.684;2022-12-18T08:29:09;100768.16;;;-9.09;92.47
41202;BME280;26936;50.524;8.684;2022-12-18T08:31:35;100762.28;;;-8.97;91.99
41202;BME280;26936;50.524;8.684;2022-12-18T08:34:00;100762.03;;;-8.77;91.74
41202;BME280;26936;50.524;8.684;2022-12-18T08:36:25;100771.59;;;-8.56;91.28
41202;BME280;26936;50.524;8.684;2022-12-18T08:38:51;100772.53;;;-7.91;90.62
41202;BME280;26936;50.524;8.684;2022-12-18T08:41:17;100768.19;;;-7.01;88.01
41202;BME280;26936;50.524;8.684;2022-12-18T08:43:43;100763.13;;;-6.18;82.80
41202;BME280;26936;50.524;8.684;2022-12-18T08:46:32;100767.78;;;-5.30;79.83
41202;BME280;26936;50.524;8.684;2022-12-18T08:48:58;100768.25;;;-4.67;76.92
41202;BME280;26936;50.524;8.684;2022-12-18T08:51:24;100759.59;;;-4.18;73.18
41202;BME280;26936;50.524;8.684;2022-12-18T08:53:49;100755.56;;;-3.52;70.39
41202;BME280;26936;50.524;8.684;2022-12-18T08:56:15;100753.59;;;-2.88;68.17
41202;BME280;26936;50.524;8.684;2022-12-18T08:58:41;100754.03;;;-2.40;66.40
41202;BME280;26936;50.524;8.684;2022-12-18T09:01:10;100753.03;;;-2.35;64.62
41202;BME280;26936;50.524;8.684;2022-12-18T09:03:35;100744.44;;;-1.72;63.50
41202;BME280;26936;50.524;8.684;2022-12-18T09:06:01;100738.03;;;-1.31;60.52
41202;BME280;26936;50.524;8.684;2022-12-18T09:08:27;100732.84;;;-0.64;60.42
41202;BME280;26936;50.524;8.684;2022-12-18T09:10:52;100741.59;;;-0.50;58.18
41202;BME280;26936;50.524;8.684;2022-12-18T09:13:19;100741.25;;;-0.61;57.20
41202;BME280;26936;50.524;8.684;2022-12-18T09:15:46;100742.00;;;0.00;57.06
41202;BME280;26936;50.524;8.684;2022-12-18T09:18:13;100750.75;;;0.69;54.25
41202;BME280;26936;50.524;8.684;2022-12-18T09:20:39;100746.81;;;1.13;52.93
41202;BME280;26936;50.524;8.684;2022-12-18T09:23:06;100750.91;;;1.04;53.27
41202;BME280;26936;50.524;8.684;2022-12-18T09:25:32;100756.72;;;0.99;52.30
41202;BME280;26936;50.524;8.684;2022-12-18T09:27:59;100756.94;;;1.06;52.67
41202;BME280;26936;50.524;8.684;2022-12-18T09:30:25;100758.09;;;1.52;51.47
41202;BME280;26936;50.524;8.684;2022-12-18T09:32:50;100753.28;;;1.83;50.82
41202;BME280;26936;50.524;8.684;2022-12-18T09:35:15;100754.66;;;1.74;50.52
41202;BME280;26936;50.524;8.684;2022-12-18T09:37:40;100747.63;;;2.49;49.33
41202;BME280;26936;50.524;8.684;2022-12-18T09:40:19;100753.69;;;2.35;48.81
41202;BME280;26936;50.524;8.684;2022-12-18T09:42:52;100741.25;;;1.95;49.73
41202;BME280;26936;50.524;8.684;2022-12-18T09:45:19;100743.34;;;1.32;50.99
41202;BME280;26936;50.524;8.684;2022-12-18T09:47:46;100743.03;;;1.21;51.97
41202;BME280;26936;50.524;8.684;2022-12-18T09:50:24;100744.38;;;1.74;52.23
41202;BME280;26936;50.524;8.684;2022-12-18T09:52:55;100729.16;;;2.60;50.67
41202;BME280;26936;50.524;8.684;2022-12-18T09:55:30;100740.00;;;2.65;51.41
41202;BME280;26936;50.524;8.684;2022-12-18T09:58:07;100741.63;;;2.47;50.91
41202;BME280;26936;50.524;8.684;2022-12-18T10:00:37;100748.94;;;2.74;51.01
41202;BME280;26936;50.524;8.684;2022-12-18T10:03:09;100741.53;;;2.43;52.41
41202;BME280;26936;50.524;8.684;2022-12-18T10:10:52;100758.16;;;1.71;53.95
41202;BME280;26936;50.524;8.684;2022-12-18T10:13:38;100753.59;;;1.16;54.81
41202;BME280;26936;50.524;8.684;2022-12-18T10:16:13;100736.50;;;0.98;58.88
41202;BME280;26936;50.524;8.684;2022-12-18T10:19:04;100741.88;;;1.69;58.84
41202;BME280;26936;50.524;8.684;2022-12-18T10:24:38;100729.00;;;2.53;60.11
41202;BME280;26936;50.524;8.684;2022-12-18T10:27:14;100731.16;;;2.21;61.33
41202;BME280;26936;50.524;8.684;2022-12-18T10:29:42;100729.91;;;2.38;62.49
41202;BME280;26936;50.524;8.684;2022-12-18T10:32:14;100728.56;;;1.94;64.41
41202;BME280;26936;50.524;8.684;2022-12-18T10:34:40;100721.16;;;2.77;61.79
41202;BME280;26936;50.524;8.684;2022-12-18T10:37:14;100728.44;;;3.05;59.43
41202;BME280;26936;50.524;8.684;2022-12-18T10:39:40;100729.69;;;2.46;60.37
41202;BME280;26936;50.524;8.684;2022-12-18T10:42:23;100722.22;;;2.50;61.85
41202;BME280;26936;50.524;8.684;2022-12-18T10:45:01;100715.22;;;1.84;62.72
41202;BME280;26936;50.524;8.684;2022-12-18T10:47:28;100714.31;;;1.45;65.36
41202;BME280;26936;50.524;8.684;2022-12-18T10:49:54;100707.88;;;0.94;67.96
41202;BME280;26936;50.524;8.684;2022-12-18T10:52:22;100704.44;;;0.70;68.64
41202;BME280;26936;50.524;8.684;2022-12-18T10:54:53;100709.09;;;0.38;69.40
41202;BME280;26936;50.524;8.684;2022-12-18T10:59:53;100710.91;;;-0.33;72.73
41202;BME280;26936;50.524;8.684;2022-12-18T11:02:40;100715.09;;;-0.75;74.79
41202;BME280;26936;50.524;8.684;2022-12-18T11:05:32;100731.91;;;-0.80;76.05
41202;BME280;26936;50.524;8.684;2022-12-18T11:07:59;100724.63;;;-0.85;77.32
41202;BME280;26936;50.524;8.684;2022-12-18T11:10:31;100728.53;;;-0.98;77.31
41202;BME280;26936;50.524;8.684;2022-12-18T11:13:10;100727.97;;;-1.03;77.23
41202;BME280;26936;50.524;8.684;2022-12-18T11:15:35;100717.47;;;-0.98;77.80
41202;BME280;26936;50.524;8.684;2022-12-18T11:18:01;100705.75;;;-0.95;77.81
41202;BME280;26936;50.524;8.684;2022-12-18T11:20:34;100697.22;;;-0.78;77.26
41202;BME280;26936;50.524;8.684;2022-12-18T11:23:00;100696.94;;;-1.09;78.09
41202;BME280;26936;50.524;8.684;2022-12-18T11:25:29;100689.72;;;-0.77;76.85
41202;BME280;26936;50.524;8.684;2022-12-18T11:27:58;100681.09;;;-0.64;76.34
41202;BME280;26936;50.524;8.684;2022-12-18T11:30:26;100664.38;;;-0.67;77.56
41202;BME280;26936;50.524;8.684;2022-12-18T11:33:14;100662.16;;;-0.98;77.70
41202;BME280;26936;50.524;8.684;2022-12-18T11:35:50;100663.53;;;-1.04;76.58
41202;BME280;26936;50.524;8.684;2022-12-18T11:38:24;100666.88;;;-1.67;78.68
41202;BME280;26936;50.524;8.684;2022-12-18T11:40:58;100668.03;;;-1.68;80.26
41202;BME280;26936;50.524;8.684;2022-12-18T11:43:47;100680.91;;;-1.72;80.26
41202;BME280;26936;50.524;8.684;2022-12-18T11:46:23;100684.47;;;-2.04;81.18
41202;BME280;26936;50.524;8.684;2022-12-18T11:48:58;100689.16;;;-2.05;81.94
41202;BME280;26936;50.524;8.684;2022-12-18T11:51:33;100675.03;;;-2.24;82.07
41202;BME280;26936;50.524;8.684;2022-12-18T11:54:01;100683.50;;;-2.08;81.70
41202;BME280;26936;50.524;8.684;2022-12-18T11:56:32;100694.25;;;-2.15;84.56
41202;BME280;26936;50.524;8.684;2022-12-18T11:59:24;100692.19;;;-2.18;83.45
41202;BME280;26936;50.524;8.684;2022-12-18T12:02:02;100677.94;;;-2.20;83.30
41202;BME280;26936;50.524;8.684;2022-12-18T12:04:46;100676.34;;;-2.50;85.12
41202;BME280;26936;50.524;8.684;2022-12-18T12:07:21;100675.94;;;-2.61;85.03
41202;BME280;26936;50.524;8.684;2022-12-18T12:15:48;100692.28;;;-3.23;87.36
41202;BME280;26936;50.524;8.684;2022-12-18T12:18:41;100691.84;;;-3.33;89.26
41202;BME280;26936;50.524;8.684;2022-12-18T12:21:41;100687.03;;;-3.53;89.81
41202;BME280;26936;50.524;8.684;2022-12-18T12:24:38;100693.56;;;-3.66;89.79
41202;BME280;26936;50.524;8.684;2022-12-18T12:32:50;100695.69;;;-3.80;93.97
41202;BME280;26936;50.524;8.684;2022-12-18T12:35:31;100685.81;;;-3.81;92.63
41202;BME280;26936;50.524;8.684;2022-12-18T12:38:11;100673.50;;;-3.75;93.67
41202;BME280;26936;50.524;8.684;2022-12-18T12:40:45;100671.53;;;-3.75;92.48
41202;BME280;26936;50.524;8.684;2022-12-18T12:43:19;100671.84;;;-3.59;93.55
41202;BME280;26936;50.524;8.684;2022-12-18T12:46:03;100660.56;;;-3.83;92.92
41202;BME280;26936;50.524;8.684;2022-12-18T12:48:40;100670.44;;;-3.91;94.15
41202;BME280;26936;50.524;8.684;2022-12-18T12:53:37;100672.38;;;-3.83;94.83
41202;BME280;26936;50.524;8.684;2022-12-18T12:56:05;100662.06;;;-4.11;95.40
41202;BME280;26936;50.524;8.684;2022-12-18T12:58:52;100664.16;;;-4.08;96.14
41202;BME280;26936;50.524;8.684;2022-12-18T13:01:35;100655.25;;;-4.31;97.56
41202;BME280;26936;50.524;8.684;2022-12-18T13:09:32;100685.66;;;-4.36;99.35
41202;BME280;26936;50.524;8.684;2022-12-18T13:12:03;100673.22;;;-4.25;99.47
41202;BME280;26936;50.524;8.684;2022-12-18T13:14:48;100678.72;;;-4.25;99.35
41202;BME280;26936;50.524;8.684;2022-12-18T13:19:48;100661.88;;;-4.58;100.00
41202;BME280;26936;50.524;8.684;2022-12-18T13:22:30;100655.56;;;-4.58;100.00
41202;BME280;26936;50.524;8.684;2022-12-18T13:24:56;100665.75;;;-4.50;100.00
41202;BME280;26936;50.524;8.684;2022-12-18T13:30:28;100680.47;;;-4.46;100.00
41202;BME280;26936;50.524;8.684;2022-12-18T13:48:51;100659.72;;;-4.78;100.00
41202;BME280;26936;50.524;8.684;2022-12-18T13:51:19;100656.50;;;-4.80;100.00
41202;BME280;26936;50.524;8.684;2022-12-18T13:54:18;100657.31;;;-4.71;100.00
41202;BME280;26936;50.524;8.684;2022-12-18T13:56:46;100666.03;;;-4.77;100.00
41202;BME280;26936;50.524;8.684;2022-12-18T13:59:21;100676.25;;;-4.69;100.00
41202;BME280;26936;50.524;8.684;2022-12-18T14:01:58;100672.66;;;-4.70;100.00
41202;BME280;26936;50.524;8.684;2022-12-18T14:04:29;100679.28;;;-4.79;100.00
41202;BME280;26936;50.524;8.684;2022-12-18T14:07:01;100682.03;;;-4.79;100.00